Time;durP1;ratioP1;P1;durP2;ratioP2;P2;SDS_P1;SDS_P2;PMS_P1;PMS_P2;Temp;Humidity;BMP_temperature;BMP_pressure;BME280_temperature;BME280_humidity;BME280_pressure;Samples;Min_cycle;Max_cycle;Signal;HPM_P1;HPM_P2
2021/10/04 00:01:32;;;;;;;2.58;0.40;;;13.60;1.00;;;;;;5071313;28;20213;-78
2021/10/04 00:03:59;;;;;;;4.75;0.70;;;13.50;1.00;;;;;;5071401;28;20214;-76
2021/10/04 00:06:26;;;;;;;1.75;0.60;;;13.50;1.00;;;;;;5071034;28;20553;-74
2021/10/04 00:08:53;;;;;;;0.82;0.52;;;13.60;1.00;;;;;;5071352;28;20206;-77
2021/10/04 00:11:20;;;;;;;2.38;0.73;;;13.50;1.00;;;;;;5072145;28;20234;-77
2021/10/04 00:13:49;;;;;;;0.90;0.38;;;13.50;1.00;;;;;;5071075;28;20673;-77
2021/10/04 00:16:16;;;;;;;2.42;0.60;;;13.40;1.00;;;;;;5071237;28;20260;-75
2021/10/04 00:18:43;;;;;;;2.50;0.82;;;13.20;1.00;;;;;;5070875;28;20711;-74
2021/10/04 00:21:10;;;;;;;3.08;0.60;;;13.20;1.00;;;;;;5070908;28;20210;-73
2021/10/04 00:23:37;;;;;;;2.17;0.90;;;13.40;1.00;;;;;;5070772;28;20202;-73
2021/10/04 00:26:04;;;;;;;3.55;0.70;;;13.40;1.00;;;;;;5071238;28;20259;-74
2021/10/04 00:28:31;;;;;;;4.05;0.98;;;13.40;1.00;;;;;;5070794;28;20202;-75
2021/10/04 00:31:00;;;;;;;3.38;0.80;;;13.30;1.00;;;;;;5071316;28;20238;-75
2021/10/04 00:33:27;;;;;;;1.05;0.65;;;13.30;1.00;;;;;;5070421;28;20206;-75
2021/10/04 00:35:54;;;;;;;1.25;0.60;;;13.30;1.00;;;;;;5071154;28;20210;-75
2021/10/04 00:38:21;;;;;;;4.05;0.80;;;13.40;1.00;;;;;;5071169;28;20267;-72
2021/10/04 00:40:48;;;;;;;2.83;0.60;;;13.40;1.00;;;;;;5070443;28;20786;-74
2021/10/04 00:43:15;;;;;;;1.55;0.50;;;13.50;1.00;;;;;;5071029;28;20210;-73
2021/10/04 00:45:43;;;;;;;2.92;0.80;;;13.50;1.00;;;;;;5070426;28;20202;-73
2021/10/04 00:48:12;;;;;;;1.65;0.60;;;13.40;1.00;;;;;;5070749;28;20214;-75
2021/10/04 00:50:39;;;;;;;1.77;0.60;;;13.40;1.00;;;;;;5069988;28;20230;-75
2021/10/04 00:53:06;;;;;;;1.45;0.60;;;13.40;1.00;;;;;;5070753;28;20209;-75
2021/10/04 00:55:33;;;;;;;4.40;0.70;;;13.30;1.00;;;;;;5070177;28;20259;-75
2021/10/04 00:58:01;;;;;;;3.80;0.45;;;13.20;1.00;;;;;;5070932;28;20209;-75
2021/10/04 01:00:29;;;;;;;2.47;0.70;;;13.30;1.00;;;;;;5070282;28;20206;-75
2021/10/04 01:02:56;;;;;;;2.25;0.60;;;13.30;1.00;;;;;;5070685;28;20206;-75
2021/10/04 01:05:25;;;;;;;2.95;1.45;;;13.30;1.00;;;;;;5070771;28;20210;-75
2021/10/04 01:07:53;;;;;;;2.35;0.60;;;13.30;1.00;;;;;;5070470;28;20210;-75
2021/10/04 01:10:20;;;;;;;4.18;0.60;;;13.30;1.00;;;;;;5070935;28;20233;-75
2021/10/04 01:12:50;;;;;;;1.60;0.60;;;13.20;1.00;;;;;;5070145;28;20240;-75
2021/10/04 01:15:18;;;;;;;2.45;0.50;;;13.20;1.00;;;;;;5070425;28;20681;-75
2021/10/04 01:17:46;;;;;;;4.47;0.88;;;13.20;1.00;;;;;;5069774;28;20630;-74
2021/10/04 01:20:16;;;;;;;4.43;0.70;;;13.10;1.00;;;;;;5069443;28;20275;-74
2021/10/04 01:22:43;;;;;;;5.53;1.10;;;13.00;1.00;;;;;;5069896;28;20210;-77
2021/10/04 01:25:11;;;;;;;1.95;0.80;;;13.00;1.00;;;;;;5070560;28;20202;-75
2021/10/04 01:27:39;;;;;;;1.63;0.85;;;12.90;1.00;;;;;;5069857;28;20206;-75
2021/10/04 01:30:09;;;;;;;1.65;0.38;;;12.90;1.00;;;;;;5070206;28;20661;-75
2021/10/04 01:32:36;;;;;;;5.00;0.88;;;13.10;1.00;;;;;;5070192;28;20228;-75
2021/10/04 01:35:04;;;;;;;2.28;0.60;;;13.10;1.00;;;;;;5070142;28;20569;-75
2021/10/04 01:37:32;;;;;;;5.82;0.80;;;13.20;1.00;;;;;;5070140;28;20260;-74
2021/10/04 01:39:59;;;;;;;2.85;1.50;;;13.20;1.00;;;;;;5070158;28;20255;-76
2021/10/04 01:42:26;;;;;;;5.57;1.52;;;13.30;1.00;;;;;;5069761;28;20218;-76
2021/10/04 01:44:53;;;;;;;3.60;1.85;;;13.20;1.00;;;;;;5070248;28;20673;-75
2021/10/04 01:47:20;;;;;;;6.43;2.78;;;13.20;1.00;;;;;;5070473;28;20255;-75
2021/10/04 01:49:48;;;;;;;10.13;3.92;;;13.10;1.00;;;;;;5069913;28;20209;-75
2021/10/04 01:52:15;;;;;;;6.88;4.75;;;13.10;1.00;;;;;;5069943;28;20298;-75
2021/10/04 01:54:44;;;;;;;8.77;4.93;;;13.10;1.00;;;;;;5069776;28;20201;-75
2021/10/04 01:57:11;;;;;;;7.38;4.90;;;13.10;1.00;;;;;;5070255;28;20245;-80
2021/10/04 01:59:38;;;;;;;8.98;3.92;;;13.10;1.00;;;;;;5069969;28;20210;-83
2021/10/04 02:02:07;;;;;;;6.32;4.25;;;13.00;1.00;;;;;;5070221;28;20742;-82
2021/10/04 02:04:34;;;;;;;6.75;4.32;;;13.10;1.00;;;;;;5069869;28;20199;-76
2021/10/04 02:07:01;;;;;;;8.73;5.07;;;13.20;1.00;;;;;;5070190;28;20287;-76
2021/10/04 02:09:29;;;;;;;8.75;3.90;;;13.20;1.00;;;;;;5069592;28;20331;-76
2021/10/04 02:11:57;;;;;;;8.45;3.70;;;13.30;1.00;;;;;;5069901;28;20234;-77
2021/10/04 02:14:24;;;;;;;8.48;4.05;;;13.30;1.00;;;;;;5069256;28;20205;-76
2021/10/04 02:16:51;;;;;;;6.30;2.53;;;13.20;1.00;;;;;;5070039;28;20260;-76
2021/10/04 02:19:18;;;;;;;7.45;3.83;;;13.10;1.00;;;;;;5069852;28;20206;-77
2021/10/04 02:21:45;;;;;;;2.88;2.35;;;13.00;1.00;;;;;;5069447;28;20210;-76
2021/10/04 02:24:13;;;;;;;10.15;2.20;;;13.20;1.00;;;;;;5069809;28;20207;-76
2021/10/04 02:26:41;;;;;;;4.57;2.03;;;13.10;1.00;;;;;;5069258;28;20202;-76
2021/10/04 02:29:09;;;;;;;4.80;3.08;;;13.10;1.00;;;;;;5069879;28;20237;-76
2021/10/04 02:31:36;;;;;;;4.93;2.22;;;13.10;1.00;;;;;;5070568;28;20299;-75
2021/10/04 02:34:03;;;;;;;4.10;2.33;;;13.20;1.00;;;;;;5073222;28;20623;-75
2021/10/04 02:36:30;;;;;;;3.25;2.40;;;13.20;1.00;;;;;;5072582;28;20215;-76
2021/10/04 02:38:57;;;;;;;7.50;2.72;;;13.10;1.00;;;;;;5073127;28;20682;-76
2021/10/04 02:41:24;;;;;;;7.43;2.83;;;13.10;1.00;;;;;;5073454;28;20283;-76
2021/10/04 02:43:51;;;;;;;3.03;1.65;;;13.10;1.00;;;;;;5073072;28;20586;-76
2021/10/04 02:46:19;;;;;;;3.90;1.65;;;13.20;1.00;;;;;;5072796;28;20260;-77
2021/10/04 02:48:46;;;;;;;4.07;1.48;;;13.20;1.00;;;;;;5072382;28;20252;-77
2021/10/04 02:51:14;;;;;;;2.40;1.40;;;13.20;1.00;;;;;;5073029;28;20226;-76
2021/10/04 02:53:41;;;;;;;6.40;1.05;;;13.30;1.00;;;;;;5072446;28;20335;-77
2021/10/04 02:56:08;;;;;;;2.10;1.30;;;13.40;1.00;;;;;;5072702;28;20210;-76
2021/10/04 02:58:35;;;;;;;3.53;1.60;;;13.30;1.00;;;;;;5072686;28;20264;-77
2021/10/04 03:01:02;;;;;;;2.80;1.70;;;13.20;1.00;;;;;;5072852;28;20202;-75
2021/10/04 03:03:31;;;;;;;3.80;2.90;;;13.20;1.00;;;;;;5072620;28;20210;-76
2021/10/04 03:05:58;;;;;;;3.03;2.08;;;13.10;1.00;;;;;;5072578;28;20229;-76
2021/10/04 03:08:24;;;;;;;8.43;3.13;;;13.10;1.00;;;;;;5072604;28;20629;-75
2021/10/04 03:10:52;;;;;;;6.43;2.53;;;13.20;1.00;;;;;;5072824;28;20284;-75
2021/10/04 03:13:19;;;;;;;4.55;2.17;;;13.10;1.00;;;;;;5072714;28;20237;-75
2021/10/04 03:15:46;;;;;;;5.75;2.75;;;13.00;1.00;;;;;;5071725;28;20355;-75
2021/10/04 03:18:13;;;;;;;3.00;2.00;;;13.00;1.00;;;;;;5072695;28;20255;-75
2021/10/04 03:20:42;;;;;;;5.60;2.13;;;13.10;1.00;;;;;;5072118;28;20255;-76
2021/10/04 03:23:09;;;;;;;4.13;1.85;;;13.10;1.00;;;;;;5072074;28;20673;-75
2021/10/04 03:25:37;;;;;;;3.70;2.13;;;13.00;1.00;;;;;;5072203;28;20202;-75
2021/10/04 03:28:04;;;;;;;3.25;1.40;;;13.00;1.00;;;;;;5072097;28;20207;-76
2021/10/04 03:30:33;;;;;;;3.40;1.42;;;13.10;1.00;;;;;;5071694;28;20207;-76
2021/10/04 03:33:01;;;;;;;3.05;1.52;;;13.10;1.00;;;;;;5072237;28;20290;-76
2021/10/04 03:35:28;;;;;;;3.75;1.95;;;13.10;1.00;;;;;;5071757;28;20242;-76
2021/10/04 03:37:57;;;;;;;8.20;2.78;;;13.00;1.00;;;;;;5071886;28;20666;-77
2021/10/04 03:40:24;;;;;;;3.58;1.80;;;12.90;1.00;;;;;;5072348;28;20236;-77
2021/10/04 03:42:52;;;;;;;4.95;2.22;;;12.90;1.00;;;;;;5071355;28;20280;-77
2021/10/04 03:45:19;;;;;;;4.63;1.48;;;12.90;1.00;;;;;;5071707;28;20202;-76
2021/10/04 03:47:46;;;;;;;5.72;2.30;;;13.00;1.00;;;;;;5071385;28;20272;-76
2021/10/04 03:50:15;;;;;;;8.10;2.92;;;13.10;1.00;;;;;;5071854;28;20260;-77
2021/10/04 03:52:43;;;;;;;6.78;2.83;;;13.10;1.00;;;;;;5071603;28;20230;-76
2021/10/04 03:55:13;;;;;;;2.22;1.58;;;13.10;1.00;;;;;;5071567;28;20637;-76
2021/10/04 03:57:41;;;;;;;3.50;1.65;;;13.20;1.00;;;;;;5071346;28;20264;-77
2021/10/04 04:00:13;;;;;;;4.50;1.25;;;13.30;1.00;;;;;;5071160;28;20206;-77
2021/10/04 04:02:40;;;;;;;2.50;0.90;;;13.30;1.00;;;;;;5071155;28;20206;-76
2021/10/04 04:05:08;;;;;;;2.28;1.15;;;13.40;1.00;;;;;;5071800;28;20202;-76
2021/10/04 04:07:35;;;;;;;4.85;1.50;;;13.20;1.00;;;;;;5084405;28;20206;-76
2021/10/04 04:10:02;;;;;;;1.88;1.00;;;13.10;1.00;;;;;;5071376;28;20214;-76
2021/10/04 04:12:31;;;;;;;2.53;1.42;;;13.00;1.00;;;;;;5070915;28;20222;-76
2021/10/04 04:14:58;;;;;;;1.17;0.98;;;13.00;1.00;;;;;;5071036;28;20252;-77
2021/10/04 04:17:25;;;;;;;1.73;1.15;;;13.00;1.00;;;;;;5071260;28;20252;-78
2021/10/04 04:19:52;;;;;;;1.50;1.00;;;13.10;1.00;;;;;;5071802;28;20218;-79
2021/10/04 04:22:19;;;;;;;1.67;1.17;;;13.00;1.00;;;;;;5071471;28;20214;-79
2021/10/04 04:24:46;;;;;;;3.35;1.52;;;13.10;1.00;;;;;;5070673;28;20685;-78
2021/10/04 04:27:13;;;;;;;5.97;1.05;;;13.00;1.00;;;;;;5070986;28;20626;-78
2021/10/04 04:29:42;;;;;;;5.57;0.90;;;13.00;1.00;;;;;;5070511;28;20251;-78
2021/10/04 04:32:11;;;;;;;1.88;1.33;;;13.00;1.00;;;;;;5071091;28;20233;-78
2021/10/04 04:34:39;;;;;;;3.45;1.23;;;13.00;1.00;;;;;;5070500;28;20217;-78
2021/10/04 04:37:06;;;;;;;3.22;1.10;;;12.80;1.00;;;;;;5071154;28;20214;-78
2021/10/04 04:39:34;;;;;;;4.13;1.17;;;12.80;1.00;;;;;;5070486;28;20263;-76
2021/10/04 04:42:01;;;;;;;2.45;1.42;;;12.70;1.00;;;;;;5070485;28;20214;-76
2021/10/04 04:44:28;;;;;;;4.50;1.33;;;12.70;1.00;;;;;;5070696;28;20202;-76
2021/10/04 04:46:57;;;;;;;2.30;1.23;;;12.80;1.00;;;;;;5070744;28;20207;-76
2021/10/04 04:49:26;;;;;;;3.03;1.27;;;12.80;1.00;;;;;;5071097;28;20593;-77
2021/10/04 04:51:54;;;;;;;2.78;1.67;;;12.80;1.00;;;;;;5069867;28;20260;-77
2021/10/04 04:54:21;;;;;;;3.20;1.52;;;12.90;1.00;;;;;;5070678;28;20220;-78
2021/10/04 04:56:49;;;;;;;2.97;1.15;;;12.80;1.00;;;;;;5070119;28;20210;-76
2021/10/04 04:59:16;;;;;;;1.30;1.20;;;12.90;1.00;;;;;;5070051;28;20234;-78
2021/10/04 05:01:43;;;;;;;4.57;1.35;;;12.80;1.00;;;;;;5070427;28;20300;-79
2021/10/04 05:04:13;;;;;;;3.03;1.05;;;12.90;1.00;;;;;;5070260;28;20253;-75
2021/10/04 05:06:40;;;;;;;3.08;1.05;;;13.00;1.00;;;;;;5070305;28;20217;-76
2021/10/04 05:09:08;;;;;;;5.40;1.00;;;13.00;1.00;;;;;;5069925;28;20202;-76
2021/10/04 05:11:35;;;;;;;3.05;1.10;;;13.00;1.00;;;;;;5070373;28;20229;-75
2021/10/04 05:14:02;;;;;;;2.95;1.15;;;13.00;1.00;;;;;;5069726;28;20209;-76
2021/10/04 05:16:29;;;;;;;1.88;1.00;;;12.90;1.00;;;;;;5070690;28;20259;-78
2021/10/04 05:18:56;;;;;;;4.38;0.93;;;12.70;1.00;;;;;;5070353;28;20611;-78
2021/10/04 05:21:25;;;;;;;2.28;0.98;;;12.60;1.00;;;;;;5070254;28;20206;-77
2021/10/04 05:23:52;;;;;;;2.20;0.70;;;12.60;1.00;;;;;;5070988;28;20206;-76
2021/10/04 05:26:19;;;;;;;2.08;0.95;;;12.60;1.00;;;;;;5069960;28;20622;-77
2021/10/04 05:28:46;;;;;;;5.05;1.10;;;12.60;1.00;;;;;;5070325;28;20267;-77
2021/10/04 05:31:13;;;;;;;5.70;1.33;;;12.50;1.00;;;;;;5069592;28;20235;-76
2021/10/04 05:33:40;;;;;;;4.55;1.75;;;12.40;1.00;;;;;;5069943;28;20202;-78
2021/10/04 05:36:07;;;;;;;3.17;1.60;;;12.50;1.00;;;;;;5068848;28;20929;-77
2021/10/04 05:38:36;;;;;;;1.65;1.10;;;12.40;1.00;;;;;;5061410;28;20256;-81
2021/10/04 05:41:04;;;;;;;2.05;1.05;;;12.50;1.00;;;;;;5069960;28;20214;-83
2021/10/04 05:43:32;;;;;;;1.75;1.13;;;12.50;1.00;;;;;;5070109;28;20202;-83
2021/10/04 05:45:59;;;;;;;3.33;1.13;;;12.70;1.00;;;;;;5070344;28;20621;-83
2021/10/04 05:48:26;;;;;;;7.82;1.05;;;12.70;1.00;;;;;;5069851;28;20210;-82
2021/10/04 05:50:54;;;;;;;2.20;0.85;;;12.80;1.00;;;;;;5070700;28;20261;-83
2021/10/04 05:53:21;;;;;;;3.38;1.52;;;12.80;1.00;;;;;;5069920;28;20291;-83
2021/10/04 05:55:50;;;;;;;7.28;1.85;;;12.90;1.00;;;;;;5070281;28;20267;-83
2021/10/04 05:58:18;;;;;;;2.95;1.33;;;12.90;1.00;;;;;;5069814;28;20260;-83
2021/10/04 06:00:45;;;;;;;4.93;1.83;;;12.80;1.00;;;;;;5070348;28;20682;-83
2021/10/04 06:03:12;;;;;;;2.47;1.17;;;12.60;1.00;;;;;;5069809;28;20214;-82
2021/10/04 06:05:39;;;;;;;9.00;2.17;;;12.50;1.00;;;;;;5070495;28;20202;-81
2021/10/04 06:08:06;;;;;;;5.18;2.65;;;12.30;1.00;;;;;;5067770;28;20206;-78
2021/10/04 06:10:33;;;;;;;4.13;1.35;;;12.20;1.00;;;;;;5073677;28;20264;-80
2021/10/04 06:13:02;;;;;;;2.40;1.40;;;12.10;1.00;;;;;;5074100;28;20298;-81
2021/10/04 06:15:29;;;;;;;3.53;1.40;;;12.10;1.00;;;;;;5073876;28;20202;-83
2021/10/04 06:17:56;;;;;;;3.20;1.40;;;12.10;1.00;;;;;;5074318;28;20346;-85
2021/10/04 06:20:24;;;;;;;2.63;1.60;;;12.10;1.00;;;;;;5073829;28;20673;-83
2021/10/04 06:22:51;;;;;;;4.85;1.45;;;12.20;1.00;;;;;;5073900;28;20210;-75
2021/10/04 06:25:19;;;;;;;2.95;1.40;;;12.20;1.00;;;;;;5073023;28;20259;-79
2021/10/04 06:27:49;;;;;;;2.55;1.80;;;12.30;1.00;;;;;;5068446;28;20267;-80
2021/10/04 06:30:18;;;;;;;4.05;1.42;;;12.30;1.00;;;;;;5072962;28;20228;-80
2021/10/04 06:32:45;;;;;;;1.42;1.00;;;12.40;1.00;;;;;;5073107;28;20234;-77
2021/10/04 06:35:13;;;;;;;2.08;0.70;;;12.30;1.00;;;;;;5063387;28;20214;-80
2021/10/04 06:37:40;;;;;;;6.85;1.30;;;12.40;1.00;;;;;;5073480;28;20263;-81
2021/10/04 06:40:09;;;;;;;4.20;0.90;;;12.40;1.00;;;;;;5072698;28;20206;-79
2021/10/04 06:42:36;;;;;;;2.40;0.90;;;12.50;1.00;;;;;;5072978;28;20214;-79
2021/10/04 06:45:04;;;;;;;4.65;1.85;;;12.60;1.00;;;;;;5072050;28;20214;-78
2021/10/04 06:47:32;;;;;;;3.38;1.60;;;12.70;1.00;;;;;;5072650;28;20206;-80
2021/10/04 06:49:59;;;;;;;2.15;1.10;;;12.80;1.00;;;;;;5073220;28;20210;-88
2021/10/04 06:52:27;;;;;;;5.78;1.75;;;12.90;1.00;;;;;;5073203;28;20709;-79
2021/10/04 06:54:54;;;;;;;4.35;1.85;;;12.80;1.00;;;;;;5072741;28;20739;-75
2021/10/04 06:57:21;;;;;;;3.97;1.85;;;12.80;1.00;;;;;;5072253;28;20736;-75
2021/10/04 06:59:48;;;;;;;4.10;2.30;;;12.90;1.00;;;;;;5072723;28;21084;-79
2021/10/04 07:02:14;;;;;;;3.33;2.13;;;12.90;1.00;;;;;;5071528;28;20214;-77
2021/10/04 07:04:43;;;;;;;8.57;2.47;;;13.00;1.00;;;;;;5072680;28;20206;-79
2021/10/04 07:07:13;;;;;;;4.70;1.88;;;13.00;1.00;;;;;;5071879;28;20210;-77
2021/10/04 07:09:40;;;;;;;4.25;2.67;;;13.10;1.00;;;;;;5072490;28;20730;-79
2021/10/04 07:12:08;;;;;;;3.83;2.10;;;13.20;1.00;;;;;;5071670;28;20287;-75
2021/10/04 07:14:35;;;;;;;3.60;1.83;;;13.20;1.00;;;;;;5072754;28;20327;-75
2021/10/04 07:17:02;;;;;;;5.45;1.88;;;13.20;1.00;;;;;;5071010;28;20233;-74
2021/10/04 07:19:29;;;;;;;1.85;1.48;;;13.30;1.00;;;;;;5071899;28;20263;-78
2021/10/04 07:21:59;;;;;;;1.75;0.95;;;13.30;1.00;;;;;;5072512;28;20206;-75
2021/10/04 07:24:26;;;;;;;2.80;1.55;;;13.20;1.00;;;;;;5071892;28;20210;-78
2021/10/04 07:26:53;;;;;;;9.18;1.23;;;13.00;1.00;;;;;;5071926;28;20210;-76
2021/10/04 07:29:21;;;;;;;1.42;0.88;;;12.90;1.00;;;;;;5071603;28;20677;-80
2021/10/04 07:31:48;;;;;;;2.83;1.45;;;12.90;1.00;;;;;;5071710;28;20297;-75
2021/10/04 07:34:16;;;;;;;4.95;2.08;;;12.90;1.00;;;;;;5071645;28;20210;-79
2021/10/04 07:36:43;;;;;;;3.05;2.13;;;13.00;1.00;;;;;;5071971;28;20681;-79
2021/10/04 07:39:11;;;;;;;3.08;1.60;;;13.20;1.00;;;;;;5070669;28;20661;-77
2021/10/04 07:41:39;;;;;;;2.42;1.70;;;13.40;1.00;;;;;;5071785;28;20210;-84
2021/10/04 07:44:06;;;;;;;2.45;1.80;;;13.60;1.00;;;;;;5071563;28;20267;-74
2021/10/04 07:46:34;;;;;;;6.47;1.90;;;13.80;1.00;;;;;;5067300;28;20207;-78
2021/10/04 07:49:01;;;;;;;2.35;1.77;;;13.90;1.00;;;;;;5072053;28;20205;-78
2021/10/04 07:51:28;;;;;;;2.85;1.65;;;13.80;1.00;;;;;;5071606;28;20674;-76
2021/10/04 07:53:55;;;;;;;3.28;1.60;;;13.90;1.00;;;;;;5071963;28;20238;-79
2021/10/04 07:56:24;;;;;;;6.47;2.50;;;13.90;1.00;;;;;;5071785;28;20206;-83
2021/10/04 07:58:51;;;;;;;12.15;5.65;;;14.20;1.00;;;;;;5071399;28;20744;-74
2021/10/04 08:01:18;;;;;;;8.25;4.15;;;14.30;1.00;;;;;;5071355;28;20209;-75
2021/10/04 08:03:45;;;;;;;5.13;4.22;;;14.50;1.00;;;;;;5071579;28;20210;-74
2021/10/04 08:06:13;;;;;;;8.93;4.78;;;14.10;1.00;;;;;;5070958;28;20263;-74
2021/10/04 08:08:40;;;;;;;17.13;12.43;;;14.10;1.00;;;;;;5071820;28;20692;-81
2021/10/04 08:11:07;;;;;;;8.93;4.82;;;14.50;1.00;;;;;;5071344;28;20210;-89
2021/10/04 08:13:37;;;;;;;4.30;2.33;;;14.50;1.00;;;;;;5071500;28;20226;-78
2021/10/04 08:16:05;;;;;;;5.35;3.38;;;14.40;1.00;;;;;;5071458;28;20301;-75
2021/10/04 08:18:32;;;;;;;3.22;2.03;;;14.50;1.00;;;;;;5071696;28;20644;-82
2021/10/04 08:20:59;;;;;;;5.32;1.80;;;14.40;1.00;;;;;;5068646;28;20324;-88
2021/10/04 08:23:26;;;;;;;7.10;1.58;;;14.30;1.00;;;;;;5072135;28;20261;-88
2021/10/04 08:25:53;;;;;;;2.78;1.52;;;14.40;1.00;;;;;;5071634;28;20254;-80
2021/10/04 08:28:20;;;;;;;1.83;1.10;;;14.40;1.00;;;;;;5070642;28;20236;-77
2021/10/04 08:30:48;;;;;;;2.35;1.25;;;14.50;1.00;;;;;;5071168;28;20207;-88
2021/10/04 08:33:15;;;;;;;3.72;1.73;;;14.60;1.00;;;;;;5067859;28;20221;-78
2021/10/04 08:35:42;;;;;;;1.65;1.10;;;14.70;1.00;;;;;;5071785;28;20248;-86
2021/10/04 08:38:09;;;;;;;7.72;1.48;;;14.60;1.00;;;;;;5071031;28;20214;-83
2021/10/04 08:40:38;;;;;;;3.15;1.23;;;14.60;1.00;;;;;;5071850;28;20264;-85
2021/10/04 08:43:05;;;;;;;2.08;0.90;;;14.80;1.00;;;;;;5071270;28;20281;-84
2021/10/04 08:45:32;;;;;;;4.25;1.20;;;14.90;1.00;;;;;;5071528;28;20256;-85
2021/10/04 08:48:02;;;;;;;9.48;2.28;;;14.90;1.00;;;;;;5071641;28;20590;-90
2021/10/04 08:50:32;;;;;;;4.18;1.33;;;15.00;1.00;;;;;;5069161;28;20686;-86
2021/10/04 08:53:00;;;;;;;2.83;1.70;;;15.20;1.00;;;;;;5071835;28;20236;-78
2021/10/04 08:55:29;;;;;;;4.43;1.88;;;15.20;1.00;;;;;;5071481;28;20279;-82
2021/10/04 08:57:56;;;;;;;3.88;2.20;;;15.20;1.00;;;;;;5071370;28;20202;-81
2021/10/04 09:00:23;;;;;;;2.88;1.65;;;15.40;1.00;;;;;;5070442;28;20210;-82
2021/10/04 09:02:51;;;;;;;5.63;2.05;;;15.50;1.00;;;;;;5071318;28;20730;-78
2021/10/04 09:05:23;;;;;;;4.95;2.90;;;15.50;1.00;;;;;;5070872;28;20222;-86
2021/10/04 09:07:52;;;;;;;6.47;2.25;;;15.50;1.00;;;;;;5065584;28;20224;-79
2021/10/04 09:10:20;;;;;;;5.13;2.97;;;15.40;1.00;;;;;;5064184;28;20214;-75
2021/10/04 09:12:50;;;;;;;3.55;2.70;;;15.50;1.00;;;;;;5069869;28;20704;-76
2021/10/04 09:15:30;;;;;;;6.43;2.50;;;15.60;1.00;;;;;;5069710;28;20202;-77
2021/10/04 09:17:58;;;;;;;3.95;2.35;;;15.60;1.00;;;;;;5067940;28;20212;-74
2021/10/04 09:20:49;;;;;;;7.97;2.22;;;15.60;1.00;;;;;;5069830;28;20232;-74
2021/10/04 09:23:44;;;;;;;4.05;2.15;;;15.70;1.00;;;;;;5069614;28;20761;-77
2021/10/04 09:26:31;;;;;;;3.70;1.90;;;15.90;1.00;;;;;;5069246;28;20259;-77
2021/10/04 09:28:59;;;;;;;3.53;1.80;;;16.00;1.00;;;;;;5061286;28;20252;-77
2021/10/04 09:31:28;;;;;;;8.32;2.67;;;16.10;1.00;;;;;;5070003;28;20209;-74
2021/10/04 09:34:06;;;;;;;3.95;1.50;;;16.20;1.00;;;;;;5070598;28;20237;-77
2021/10/04 09:36:36;;;;;;;2.88;1.45;;;16.10;1.00;;;;;;5069807;28;20247;-75
2021/10/04 09:39:15;;;;;;;3.80;1.92;;;16.00;1.00;;;;;;5069787;28;20255;-79
2021/10/04 09:42:08;;;;;;;4.53;2.08;;;15.90;1.00;;;;;;5070743;28;20650;-75
2021/10/04 09:44:51;;;;;;;5.45;2.17;;;15.70;1.00;;;;;;5074182;28;20268;-76
2021/10/04 09:47:20;;;;;;;3.30;1.40;;;15.90;1.00;;;;;;5073723;28;20198;-77
2021/10/04 09:49:59;;;;;;;8.32;2.00;;;16.00;1.00;;;;;;5073985;28;20255;-75
2021/10/04 09:52:49;;;;;;;5.22;2.47;;;16.10;1.00;;;;;;5074191;28;20202;-84
2021/10/04 09:55:25;;;;;;;1.75;0.80;;;16.30;1.00;;;;;;5070915;28;20578;-76
2021/10/04 09:58:08;;;;;;;3.15;0.80;;;16.90;1.00;;;;;;5073983;28;20212;-80
2021/10/04 10:00:38;;;;;;;1.00;0.88;;;17.10;1.00;;;;;;5073938;28;20280;-75
2021/10/04 10:03:07;;;;;;;1.80;0.85;;;17.20;1.00;;;;;;5073639;28;20213;-77
2021/10/04 10:05:36;;;;;;;1.85;1.13;;;17.40;1.00;;;;;;5073492;28;20669;-77
2021/10/04 10:08:06;;;;;;;6.43;1.08;;;17.20;1.00;;;;;;5073648;28;20210;-73
2021/10/04 10:10:33;;;;;;;4.93;1.08;;;17.10;1.00;;;;;;5070529;28;20670;-75
2021/10/04 10:13:01;;;;;;;4.07;1.35;;;17.10;1.00;;;;;;5073682;28;20230;-75
2021/10/04 10:15:30;;;;;;;4.95;1.23;;;17.50;1.00;;;;;;5073418;28;20617;-75
2021/10/04 10:18:08;;;;;;;3.85;1.17;;;17.80;1.00;;;;;;5073890;28;20264;-73
2021/10/04 10:20:37;;;;;;;5.60;1.42;;;17.60;1.00;;;;;;5073477;28;20202;-72
2021/10/04 10:23:05;;;;;;;8.07;2.20;;;17.60;1.00;;;;;;5072948;28;20639;-77
2021/10/04 10:25:36;;;;;;;3.85;1.08;;;17.50;1.00;;;;;;5073344;28;20232;-78
2021/10/04 10:28:07;;;;;;;2.67;0.88;;;17.40;1.00;;;;;;5062927;28;20279;-79
2021/10/04 10:30:34;;;;;;;7.85;1.27;;;17.20;1.00;;;;;;5073594;28;20293;-71
2021/10/04 10:33:01;;;;;;;6.07;1.20;;;17.20;1.00;;;;;;5073266;28;20233;-73
2021/10/04 10:35:49;;;;;;;2.60;1.25;;;17.10;1.00;;;;;;5073537;28;20727;-73
2021/10/04 10:38:38;;;;;;;3.75;1.20;;;17.00;1.00;;;;;;5072464;28;20205;-74
2021/10/04 10:41:16;;;;;;;2.42;1.35;;;17.10;1.00;;;;;;5072967;28;20210;-75
2021/10/04 10:44:11;;;;;;;5.10;1.17;;;17.10;1.00;;;;;;5073387;28;20206;-73
2021/10/04 10:46:56;;;;;;;2.05;0.80;;;17.20;1.00;;;;;;5072954;28;20624;-80
2021/10/04 10:50:01;;;;;;;3.08;1.15;;;17.40;1.00;;;;;;5072723;28;20666;-80
2021/10/04 10:52:30;;;;;;;3.55;0.90;;;17.30;1.00;;;;;;5073222;28;20206;-73
2021/10/04 10:54:59;;;;;;;4.75;1.10;;;17.30;1.00;;;;;;5072974;28;20283;-73
2021/10/04 10:58:01;;;;;;;2.80;0.95;;;17.30;1.00;;;;;;5073354;28;20209;-72
2021/10/04 11:00:30;;;;;;;2.97;1.00;;;17.40;1.00;;;;;;5066857;28;20578;-74
2021/10/04 11:03:00;;;;;;;5.10;1.17;;;17.30;1.00;;;;;;5072886;28;20202;-74
2021/10/04 11:06:02;;;;;;;6.45;0.77;;;17.40;1.00;;;;;;5071926;28;20301;-71
2021/10/04 11:08:58;;;;;;;4.93;1.95;;;17.40;1.00;;;;;;5050040;28;20256;-71
2021/10/04 11:11:31;;;;;;;5.65;0.60;;;17.50;1.00;;;;;;5050308;28;20723;-74
2021/10/04 11:14:13;;;;;;;4.93;1.38;;;17.70;1.00;;;;;;5065602;28;20225;-75
2021/10/04 11:17:00;;;;;;;5.57;2.17;;;17.80;1.00;;;;;;5072521;28;20213;-76
2021/10/04 11:19:37;;;;;;;4.35;0.95;;;17.70;1.00;;;;;;5062487;28;20202;-76
2021/10/04 11:22:17;;;;;;;3.45;0.50;;;17.80;1.00;;;;;;5071032;28;20212;-75
2021/10/04 11:24:44;;;;;;;4.55;0.88;;;17.90;1.00;;;;;;5071890;28;20202;-76
2021/10/04 11:27:13;;;;;;;3.88;0.82;;;18.00;1.00;;;;;;5071296;28;20260;-75
2021/10/04 11:29:40;;;;;;;3.50;1.30;;;18.00;1.00;;;;;;5071815;28;20202;-76
2021/10/04 11:32:15;;;;;;;4.10;1.13;;;18.20;1.00;;;;;;5071941;28;20202;-76
2021/10/04 11:34:42;;;;;;;6.35;1.92;;;18.30;1.00;;;;;;5071830;28;20716;-76
2021/10/04 11:37:09;;;;;;;4.03;0.70;;;18.20;1.00;;;;;;5071365;28;20198;-75
2021/10/04 11:39:36;;;;;;;7.75;1.48;;;17.90;1.00;;;;;;5071945;28;20747;-75
2021/10/04 11:42:07;;;;;;;5.90;1.00;;;17.80;1.00;;;;;;5071356;28;20634;-75
2021/10/04 11:44:40;;;;;;;5.70;1.23;;;17.90;1.00;;;;;;5072085;28;20606;-75
2021/10/04 11:47:08;;;;;;;4.95;1.27;;;17.80;1.00;;;;;;5070870;28;20210;-75
2021/10/04 11:49:37;;;;;;;10.65;1.85;;;17.80;1.00;;;;;;5070854;28;20252;-75
2021/10/04 11:52:06;;;;;;;6.82;1.45;;;17.80;1.00;;;;;;5070848;28;20198;-75
2021/10/04 11:54:42;;;;;;;3.90;1.67;;;17.80;1.00;;;;;;5071171;28;20316;-75
2021/10/04 11:57:11;;;;;;;3.13;0.98;;;18.20;1.00;;;;;;5070467;28;20202;-75
2021/10/04 11:59:51;;;;;;;2.17;0.80;;;17.90;1.00;;;;;;5063558;28;20658;-75
2021/10/04 12:02:21;;;;;;;8.40;2.15;;;17.60;1.00;;;;;;5070495;28;20202;-75
2021/10/04 12:04:49;;;;;;;22.17;4.00;;;17.70;1.00;;;;;;5070252;28;20203;-75
2021/10/04 12:07:16;;;;;;;8.55;2.25;;;17.60;1.00;;;;;;5070223;28;20255;-75
2021/10/04 12:09:43;;;;;;;4.90;1.30;;;17.60;1.00;;;;;;5054694;28;20267;-75
2021/10/04 12:12:10;;;;;;;2.33;1.08;;;18.10;1.00;;;;;;5051741;28;20678;-74
2021/10/04 12:14:39;;;;;;;4.70;1.02;;;18.50;1.00;;;;;;5052365;28;20230;-75
2021/10/04 12:17:08;;;;;;;3.35;1.73;;;18.80;1.00;;;;;;5055789;28;20206;-75
2021/10/04 12:19:35;;;;;;;2.88;0.90;;;19.00;1.00;;;;;;5067000;28;20271;-75
2021/10/04 12:22:03;;;;;;;4.85;1.73;;;18.90;1.00;;;;;;5052738;28;20276;-74
2021/10/04 12:24:32;;;;;;;2.55;0.80;;;18.90;1.00;;;;;;5051021;28;20199;-75
2021/10/04 12:27:02;;;;;;;4.32;0.90;;;18.80;1.00;;;;;;5053506;28;20206;-74
2021/10/04 12:29:39;;;;;;;3.90;0.65;;;19.00;1.00;;;;;;5066639;28;20579;-74
2021/10/04 12:32:26;;;;;;;6.10;0.77;;;19.40;1.00;;;;;;5070580;28;20623;-74
2021/10/04 12:35:06;;;;;;;4.22;1.00;;;19.40;1.00;;;;;;5070315;28;20287;-75
2021/10/04 12:37:36;;;;;;;5.75;0.90;;;19.50;1.00;;;;;;5071173;28;20225;-75
2021/10/04 12:40:29;;;;;;;3.55;0.90;;;19.90;1.00;;;;;;5070404;28;20226;-75
2021/10/04 12:43:02;;;;;;;3.55;0.85;;;20.20;1.00;;;;;;5071024;28;20218;-74
2021/10/04 12:45:30;;;;;;;3.25;0.85;;;20.40;1.00;;;;;;5069351;28;20271;-75
2021/10/04 12:48:01;;;;;;;6.43;1.15;;;19.90;1.00;;;;;;5071343;28;20202;-75
2021/10/04 12:50:31;;;;;;;3.13;0.75;;;19.10;1.00;;;;;;5070628;28;20645;-75
2021/10/04 12:53:15;;;;;;;6.18;1.45;;;18.50;1.00;;;;;;5071445;28;20206;-75
2021/10/04 12:55:53;;;;;;;3.38;1.33;;;18.20;1.00;;;;;;5069043;28;20280;-74
2021/10/04 12:58:21;;;;;;;3.80;0.82;;;18.10;1.00;;;;;;5070059;28;20598;-75
2021/10/04 13:00:49;;;;;;;6.78;0.80;;;18.20;1.00;;;;;;5070577;28;20206;-74
2021/10/04 13:03:18;;;;;;;2.85;0.70;;;18.50;1.00;;;;;;5070029;28;20206;-75
2021/10/04 13:05:45;;;;;;;2.90;0.55;;;18.90;1.00;;;;;;5070507;28;20210;-75
2021/10/04 13:08:12;;;;;;;1.95;0.88;;;19.00;1.00;;;;;;5069116;28;20202;-74
2021/10/04 13:10:39;;;;;;;2.80;0.52;;;19.30;1.00;;;;;;5057904;28;20207;-73